This is the latest recevied weather packets stored in our database for station/object KC0CAU. If no packets are shown the sender has not sent any weather packets the latest 10 day(s).
| Time | Temp. | Humidity | Pressure | Rain* | Wind** | Luminosity | Snow |
|---|---|---|---|---|---|---|---|
| 1777801538 | 4.44° C | 68% | 1014.4 hPa | 0 mm | - | - | - |
| 1777800634 | 5° C | 66% | 1014.3 hPa | 0 mm | - | - | - |
| 1777799742 | 5.56° C | 65% | 1014.2 hPa | 0 mm | - | - | - |
| 1777798835 | 5.56° C | 64% | 1014.2 hPa | 0 mm | - | - | - |
| 1777797023 | 6.11° C | 62% | 1014 hPa | 0 mm | - | - | - |
| 1777796120 | 6.67° C | 61% | 1014 hPa | 0 mm | - | - | - |
| 1777795219 | 7.22° C | 61% | 1013.9 hPa | 0 mm | - | - | - |
| 1777794318 | 7.22° C | 61% | 1013.9 hPa | 0 mm | - | - | - |
| 1777793414 | 7.22° C | 61% | 1014.1 hPa | 0 mm | - | - | - |
| 1777792512 | 7.78° C | 61% | 1014 hPa | 0 mm | - | - | - |
| 1777791614 | 8.33° C | 59% | 1014 hPa | 0 mm | - | - | - |
| 1777790706 | 9.44° C | 54% | 1013.9 hPa | 0 mm | - | - | - |
| 1777789801 | 10° C | 52% | 1013.9 hPa | 0 mm | - | - | - |
| 1777788957 | 10.56° C | 52% | 1013.7 hPa | 0 mm | - | - | - |
| 1777788079 | 10.56° C | 54% | 1013.5 hPa | 0 mm | - | - | - |
| 1777787159 | 10° C | 59% | 1013.4 hPa | 0 mm | - | - | - |
| 1777786250 | 10.56° C | 60% | 1013.5 hPa | 0 mm | - | - | - |
| 1777785349 | 11.11° C | 60% | 1013.3 hPa | 0 mm | - | - | - |
| 1777784445 | 11.67° C | 60% | 1013.1 hPa | 0 mm | - | - | - |
| 1777783544 | 11.67° C | 61% | 1013.2 hPa | 0 mm | - | - | - |
| 1777782645 | 12.78° C | 59% | 1012.9 hPa | 0 mm | - | - | - |
| 1777781742 | 13.33° C | 58% | 1012.7 hPa | 0 mm | - | - | - |
| 1777780842 | 13.33° C | 57% | 1012.8 hPa | 0 mm | - | - | - |
| 1777779941 | 13.89° C | 55% | 1012.8 hPa | 0 mm | - | - | - |
| 1777779047 | 13.89° C | 54% | 1012.7 hPa | 0 mm | - | - | - |
* Rain latest hour (hover to see other rain measurements)
** Current wind speed in m/s (hover to see current wind gust speed)